Time;durP1;ratioP1;P1;durP2;ratioP2;P2;SDS_P1;SDS_P2;PMS_P1;PMS_P2;Temp;Humidity;BMP_temperature;BMP_pressure;BME280_temperature;BME280_humidity;BME280_pressure;Samples;Min_cycle;Max_cycle;Signal;HPM_P1;HPM_P2
2021/05/19 00:00:51;;;;;;;4.80;3.33;;;9.70;99.90;;;;;;5072920;28;20111;-66
2021/05/19 00:03:16;;;;;;;4.75;2.70;;;9.60;99.90;;;;;;5077724;28;20028;-66
2021/05/19 00:05:42;;;;;;;4.63;2.53;;;9.60;99.90;;;;;;5072478;28;20090;-66
2021/05/19 00:08:08;;;;;;;4.13;2.35;;;9.60;99.90;;;;;;5050398;28;20060;-66
2021/05/19 00:10:36;;;;;;;5.45;3.30;;;9.50;99.90;;;;;;5070245;28;20078;-66
2021/05/19 00:13:07;;;;;;;4.57;2.75;;;9.50;99.90;;;;;;5070626;28;20567;-66
2021/05/19 00:15:32;;;;;;;6.07;3.33;;;9.50;99.90;;;;;;5071130;28;20103;-66
2021/05/19 00:18:04;;;;;;;4.25;2.80;;;9.40;99.90;;;;;;5051877;28;20032;-66
2021/05/19 00:20:32;;;;;;;8.30;4.00;;;9.50;99.90;;;;;;5069576;28;20085;-66
2021/05/19 00:22:57;;;;;;;5.88;3.03;;;9.40;99.90;;;;;;5071969;28;20699;-66
2021/05/19 00:25:23;;;;;;;5.47;3.20;;;9.40;99.90;;;;;;5076218;28;20032;-66
2021/05/19 00:27:49;;;;;;;5.75;2.97;;;9.40;99.90;;;;;;5070776;28;20035;-66
2021/05/19 00:30:19;;;;;;;5.78;2.90;;;9.30;99.90;;;;;;5069341;28;20477;-66
2021/05/19 00:32:44;;;;;;;4.45;2.95;;;9.30;99.90;;;;;;5070278;28;20564;-66
2021/05/19 00:35:13;;;;;;;5.22;3.67;;;9.20;99.90;;;;;;5069993;28;20062;-66
2021/05/19 00:37:39;;;;;;;5.35;3.60;;;9.20;99.90;;;;;;5067650;28;20039;-66
2021/05/19 00:40:10;;;;;;;6.75;3.15;;;9.20;99.90;;;;;;5070628;28;20037;-66
2021/05/19 00:42:36;;;;;;;3.25;2.38;;;9.10;99.90;;;;;;5070607;28;20093;-66
2021/05/19 00:45:13;;;;;;;9.10;3.03;;;9.20;99.90;;;;;;5069980;28;20028;-66
2021/05/19 00:47:42;;;;;;;4.35;3.30;;;9.10;99.90;;;;;;5057200;28;20052;-66
2021/05/19 00:50:18;;;;;;;5.80;3.40;;;9.10;99.90;;;;;;5084688;28;20079;-66
2021/05/19 00:52:44;;;;;;;4.50;2.90;;;9.10;99.90;;;;;;5068770;28;20031;-66
2021/05/19 00:55:13;;;;;;;6.43;3.60;;;9.00;99.90;;;;;;5069305;28;20024;-66
2021/05/19 00:57:44;;;;;;;7.95;4.03;;;9.00;99.90;;;;;;5068202;28;20023;-66
2021/05/19 01:00:12;;;;;;;5.07;3.75;;;9.00;99.90;;;;;;5069323;28;20032;-66
2021/05/19 01:02:42;;;;;;;5.38;3.95;;;8.90;99.90;;;;;;5075624;28;20027;-65
2021/05/19 01:05:20;;;;;;;4.80;3.47;;;8.90;99.90;;;;;;5073679;28;20043;-66
2021/05/19 01:10:32;;;;;;;5.82;3.35;;;8.90;99.90;;;;;;5068517;28;20086;-66
2021/05/19 01:13:00;;;;;;;6.53;3.20;;;8.80;99.90;;;;;;5051045;28;20028;-66
2021/05/19 01:15:28;;;;;;;4.63;3.13;;;8.90;99.90;;;;;;5069028;28;20055;-66
2021/05/19 01:17:56;;;;;;;4.70;2.78;;;8.80;99.90;;;;;;5068326;28;20052;-66
2021/05/19 01:20:21;;;;;;;5.65;3.20;;;8.80;99.90;;;;;;5069027;28;20036;-66
2021/05/19 01:22:47;;;;;;;5.45;3.40;;;8.70;99.90;;;;;;5068263;28;20075;-66
2021/05/19 01:25:17;;;;;;;8.02;3.35;;;8.70;99.90;;;;;;5066541;28;20035;-67
2021/05/19 01:27:53;;;;;;;5.15;3.28;;;8.70;99.90;;;;;;5076858;28;20380;-66
2021/05/19 01:30:24;;;;;;;5.88;3.47;;;8.70;99.90;;;;;;5081103;28;20362;-66
2021/05/19 01:32:54;;;;;;;4.90;3.50;;;8.60;99.90;;;;;;5076435;28;20021;-66
2021/05/19 01:35:22;;;;;;;4.82;3.03;;;8.70;99.90;;;;;;5077513;28;20066;-66
2021/05/19 01:37:50;;;;;;;5.72;3.42;;;8.60;99.90;;;;;;5068292;28;20134;-66
2021/05/19 01:40:18;;;;;;;5.55;3.60;;;8.60;99.90;;;;;;5068653;28;20063;-66
2021/05/19 01:42:49;;;;;;;7.93;4.55;;;8.60;99.90;;;;;;5077184;28;20092;-66
2021/05/19 01:45:16;;;;;;;5.35;3.50;;;8.60;99.90;;;;;;5075910;28;20036;-66
2021/05/19 01:47:45;;;;;;;7.32;4.00;;;8.60;99.90;;;;;;5074887;28;20636;-66
2021/05/19 01:50:12;;;;;;;6.32;3.88;;;8.60;99.90;;;;;;5076596;28;20113;-66
2021/05/19 01:52:38;;;;;;;7.93;3.70;;;8.60;99.90;;;;;;5076196;28;20386;-66
2021/05/19 01:55:07;;;;;;;5.40;4.15;;;8.60;99.90;;;;;;5076074;28;20033;-66
2021/05/19 01:57:35;;;;;;;6.95;3.78;;;8.60;99.90;;;;;;5071312;28;20931;-66
2021/05/19 02:00:05;;;;;;;6.03;3.95;;;8.70;99.90;;;;;;5068130;28;20135;-66
2021/05/19 02:02:33;;;;;;;5.80;4.30;;;8.70;99.90;;;;;;5068200;28;20059;-66
2021/05/19 02:05:01;;;;;;;6.40;4.70;;;8.70;99.90;;;;;;5068743;28;20028;-66
2021/05/19 02:07:31;;;;;;;6.57;4.88;;;8.70;99.90;;;;;;5067936;28;20056;-66
2021/05/19 02:09:57;;;;;;;6.20;4.80;;;8.70;99.90;;;;;;5068801;28;20021;-66
2021/05/19 02:12:22;;;;;;;7.10;5.40;;;8.80;99.90;;;;;;5067505;28;20039;-66
2021/05/19 02:14:48;;;;;;;7.80;5.75;;;8.90;99.90;;;;;;5074956;28;20021;-65
2021/05/19 02:17:16;;;;;;;6.63;4.82;;;8.90;99.90;;;;;;5074574;28;20083;-67
2021/05/19 02:19:41;;;;;;;6.75;5.10;;;8.90;99.90;;;;;;5075285;28;20031;-66
2021/05/19 02:22:09;;;;;;;6.97;4.80;;;9.00;99.90;;;;;;5079015;28;20048;-66
2021/05/19 02:24:37;;;;;;;6.35;4.82;;;9.00;99.90;;;;;;5074082;28;20481;-66
2021/05/19 02:27:03;;;;;;;7.13;5.50;;;9.00;99.90;;;;;;5072333;28;20153;-66
2021/05/19 02:29:29;;;;;;;6.93;4.95;;;9.00;99.90;;;;;;5075358;28;20058;-66
2021/05/19 02:31:57;;;;;;;6.70;5.15;;;9.00;99.90;;;;;;5070157;28;20040;-65
2021/05/19 02:34:22;;;;;;;7.38;5.50;;;9.00;99.90;;;;;;5067754;28;20020;-65
2021/05/19 02:36:50;;;;;;;7.00;4.93;;;9.00;99.90;;;;;;5076208;28;20025;-66
2021/05/19 02:39:16;;;;;;;7.38;5.38;;;9.00;99.90;;;;;;5071094;28;20025;-65
2021/05/19 02:41:46;;;;;;;7.00;5.32;;;9.00;99.90;;;;;;5072253;28;20093;-65
2021/05/19 02:44:17;;;;;;;8.93;6.28;;;9.00;99.90;;;;;;5076526;28;20051;-66
2021/05/19 02:46:42;;;;;;;8.18;6.15;;;8.90;99.90;;;;;;5075556;28;20025;-66
2021/05/19 02:49:12;;;;;;;9.30;6.65;;;9.00;99.90;;;;;;5075098;28;20443;-66
2021/05/19 02:51:38;;;;;;;9.43;7.03;;;8.90;99.90;;;;;;5079994;28;20032;-66
2021/05/19 02:54:05;;;;;;;8.35;6.38;;;8.90;99.90;;;;;;5077685;28;20930;-66
2021/05/19 02:56:30;;;;;;;8.55;7.20;;;9.00;99.90;;;;;;5079868;28;20028;-66
2021/05/19 02:58:56;;;;;;;8.65;6.88;;;9.00;99.90;;;;;;5071999;28;20035;-65
2021/05/19 03:01:22;;;;;;;9.32;6.95;;;9.00;99.90;;;;;;5071172;28;20043;-66
2021/05/19 03:03:49;;;;;;;9.90;8.15;;;9.00;99.90;;;;;;5072121;28;20419;-66
2021/05/19 03:06:15;;;;;;;10.85;8.48;;;9.10;99.90;;;;;;5070162;28;20107;-66
2021/05/19 03:08:41;;;;;;;10.68;8.45;;;9.10;99.90;;;;;;5072389;28;20039;-66
2021/05/19 03:11:06;;;;;;;10.57;8.40;;;9.10;99.90;;;;;;5068472;28;20082;-66
2021/05/19 03:13:32;;;;;;;14.95;9.80;;;9.10;99.90;;;;;;5069217;28;20078;-65
2021/05/19 03:15:58;;;;;;;11.88;9.90;;;9.10;99.90;;;;;;5070552;28;20123;-65
2021/05/19 03:18:23;;;;;;;12.25;9.95;;;9.20;99.90;;;;;;5072197;28;20884;-65
2021/05/19 03:20:51;;;;;;;11.68;8.80;;;9.20;99.90;;;;;;5069889;28;20436;-66
2021/05/19 03:23:17;;;;;;;13.32;8.82;;;9.30;99.90;;;;;;5071104;28;20059;-66
2021/05/19 03:25:43;;;;;;;10.60;8.82;;;9.40;99.90;;;;;;5070748;28;20393;-66
2021/05/19 03:28:11;;;;;;;10.57;7.70;;;9.40;99.90;;;;;;5071276;28;21760;-66
2021/05/19 03:30:39;;;;;;;8.98;6.47;;;9.50;99.90;;;;;;5052806;28;20036;-66
2021/05/19 03:33:05;;;;;;;9.95;5.97;;;9.50;99.90;;;;;;5075211;28;20028;-66
2021/05/19 03:35:36;;;;;;;10.38;5.80;;;9.50;99.90;;;;;;5078252;28;20031;-65
2021/05/19 03:38:01;;;;;;;9.98;7.13;;;9.60;99.90;;;;;;5078441;28;20049;-66
2021/05/19 03:40:27;;;;;;;9.98;8.25;;;9.60;99.90;;;;;;5078763;28;20108;-66
2021/05/19 03:42:55;;;;;;;11.27;8.75;;;9.60;99.90;;;;;;5075396;28;20024;-66
2021/05/19 03:45:24;;;;;;;13.32;11.27;;;9.60;99.90;;;;;;5076723;28;20634;-66
2021/05/19 03:47:51;;;;;;;10.68;8.57;;;9.60;99.90;;;;;;5070008;28;20028;-66
2021/05/19 03:50:18;;;;;;;9.57;6.07;;;9.60;99.90;;;;;;5070047;28;20445;-66
2021/05/19 03:52:44;;;;;;;8.15;6.05;;;9.70;99.90;;;;;;5060087;28;20039;-66
2021/05/19 03:55:13;;;;;;;9.85;7.03;;;9.70;99.90;;;;;;5069294;28;20358;-66
2021/05/19 03:57:39;;;;;;;9.30;7.25;;;9.70;99.90;;;;;;5070812;28;20516;-66
2021/05/19 04:00:06;;;;;;;9.75;6.85;;;9.80;99.90;;;;;;5068361;28;20032;-66
2021/05/19 04:02:33;;;;;;;8.02;5.20;;;9.80;99.90;;;;;;5070649;28;20024;-65
2021/05/19 04:05:01;;;;;;;8.02;4.82;;;9.80;99.90;;;;;;5067772;28;20024;-66
2021/05/19 04:07:29;;;;;;;7.65;5.43;;;9.90;99.90;;;;;;5076565;28;20028;-66
2021/05/19 04:09:58;;;;;;;7.90;5.75;;;9.90;99.90;;;;;;5055885;28;20097;-66
2021/05/19 04:12:24;;;;;;;9.00;5.78;;;9.90;99.90;;;;;;5072449;28;20032;-66
2021/05/19 04:14:51;;;;;;;8.50;6.45;;;9.90;99.90;;;;;;5078256;28;20346;-65
2021/05/19 04:17:19;;;;;;;8.68;6.50;;;9.80;99.90;;;;;;5073275;28;20032;-66
2021/05/19 04:19:45;;;;;;;7.28;5.63;;;9.90;99.90;;;;;;5070173;28;20468;-66
2021/05/19 04:22:13;;;;;;;7.28;5.75;;;9.90;99.90;;;;;;5070061;28;20048;-66
2021/05/19 04:24:41;;;;;;;7.60;5.93;;;9.90;99.90;;;;;;5071890;28;20369;-66
2021/05/19 04:27:09;;;;;;;8.40;6.57;;;9.90;99.90;;;;;;5055474;28;21978;-66
2021/05/19 04:29:39;;;;;;;8.95;6.35;;;9.90;99.90;;;;;;5069563;28;20038;-66
2021/05/19 04:32:05;;;;;;;8.15;6.70;;;9.90;99.90;;;;;;5070454;28;20105;-66
2021/05/19 04:34:30;;;;;;;7.82;6.10;;;9.90;99.90;;;;;;5069998;28;20039;-66
2021/05/19 04:36:56;;;;;;;8.52;6.55;;;9.90;99.90;;;;;;5074775;28;20497;-66
2021/05/19 04:39:23;;;;;;;7.40;6.03;;;9.90;99.90;;;;;;5077167;28;20033;-66
2021/05/19 04:41:49;;;;;;;7.55;6.15;;;9.90;99.90;;;;;;5077482;28;20027;-66
2021/05/19 04:44:22;;;;;;;8.20;6.20;;;9.90;99.90;;;;;;5079029;28;20024;-66
2021/05/19 04:46:47;;;;;;;7.85;6.03;;;9.90;99.90;;;;;;5077331;28;20028;-66
2021/05/19 04:49:13;;;;;;;7.45;5.95;;;9.90;99.90;;;;;;5075185;28;20138;-66
2021/05/19 04:51:39;;;;;;;8.23;6.07;;;9.90;99.90;;;;;;5078595;28;20020;-66
2021/05/19 04:54:05;;;;;;;7.40;6.28;;;9.90;99.90;;;;;;5075684;28;20153;-66
2021/05/19 04:56:32;;;;;;;7.85;6.38;;;9.90;99.90;;;;;;5076094;28;20028;-66
2021/05/19 04:59:00;;;;;;;7.28;5.93;;;10.00;99.90;;;;;;5076343;28;20081;-65
2021/05/19 05:01:28;;;;;;;6.53;5.25;;;10.00;99.90;;;;;;5072265;28;20120;-66
2021/05/19 05:03:56;;;;;;;7.13;5.85;;;10.00;99.90;;;;;;5068437;28;20074;-66
2021/05/19 05:06:22;;;;;;;7.70;6.03;;;10.00;99.90;;;;;;5068428;28;20024;-66
2021/05/19 05:08:47;;;;;;;7.05;6.10;;;10.00;99.90;;;;;;5073431;28;20017;-66
2021/05/19 05:11:18;;;;;;;7.15;5.75;;;10.10;99.90;;;;;;5078227;28;20029;-66
2021/05/19 05:13:43;;;;;;;8.52;6.40;;;10.10;99.90;;;;;;5054350;28;20028;-66
2021/05/19 05:16:12;;;;;;;8.00;6.13;;;10.10;99.90;;;;;;5075145;28;20051;-66
2021/05/19 05:18:41;;;;;;;6.90;5.68;;;10.10;99.90;;;;;;5078864;28;20123;-66
2021/05/19 05:21:07;;;;;;;7.75;5.90;;;10.10;99.90;;;;;;5074910;28;20086;-66
2021/05/19 05:23:33;;;;;;;8.90;6.10;;;10.10;99.90;;;;;;5057606;28;20043;-66
2021/05/19 05:26:01;;;;;;;9.20;7.75;;;10.10;99.90;;;;;;5075070;28;20154;-69
2021/05/19 05:28:27;;;;;;;10.35;8.02;;;10.10;99.90;;;;;;5077497;28;20020;-66
2021/05/19 05:30:54;;;;;;;10.45;7.90;;;10.00;99.90;;;;;;5074793;28;20526;-66
2021/05/19 05:33:20;;;;;;;10.32;9.23;;;10.00;99.90;;;;;;5075112;28;20016;-66
2021/05/19 05:35:48;;;;;;;11.68;9.07;;;10.00;99.90;;;;;;5076131;28;20462;-66
2021/05/19 05:38:13;;;;;;;11.10;9.30;;;10.00;99.90;;;;;;5077002;28;20039;-66
2021/05/19 05:40:41;;;;;;;9.80;8.57;;;10.00;99.90;;;;;;5071686;28;20028;-66
2021/05/19 05:43:11;;;;;;;11.52;9.73;;;10.00;99.90;;;;;;5069439;28;20166;-67
2021/05/19 05:45:39;;;;;;;11.00;9.52;;;10.10;99.90;;;;;;5070815;28;20078;-66
2021/05/19 05:48:05;;;;;;;12.45;9.27;;;10.10;99.90;;;;;;5073308;28;20035;-67
2021/05/19 05:50:31;;;;;;;9.73;8.73;;;10.10;99.90;;;;;;5075724;28;20160;-66
2021/05/19 05:52:59;;;;;;;10.43;9.32;;;10.10;99.90;;;;;;5079487;28;20056;-66
2021/05/19 05:55:30;;;;;;;9.93;8.65;;;10.20;99.90;;;;;;5078765;28;20077;-66
2021/05/19 05:57:56;;;;;;;10.30;9.00;;;10.20;99.90;;;;;;5077109;28;20123;-66
2021/05/19 06:00:22;;;;;;;10.20;8.15;;;10.20;99.90;;;;;;5067514;28;20073;-66
2021/05/19 06:02:50;;;;;;;10.07;8.27;;;10.20;99.90;;;;;;5068185;28;20031;-68
2021/05/19 06:05:18;;;;;;;10.52;8.73;;;10.20;99.90;;;;;;5069165;28;20024;-68
2021/05/19 06:07:46;;;;;;;10.52;8.25;;;10.30;99.90;;;;;;5076959;28;20373;-68
2021/05/19 06:10:14;;;;;;;9.55;8.05;;;10.30;99.90;;;;;;5070486;28;20025;-66
2021/05/19 06:12:43;;;;;;;10.18;8.27;;;10.30;99.90;;;;;;5077851;28;20528;-66
2021/05/19 06:15:11;;;;;;;10.48;8.55;;;10.40;99.90;;;;;;5076561;28;20027;-66
2021/05/19 06:17:37;;;;;;;10.38;8.32;;;10.40;99.90;;;;;;5074565;28;20077;-66
2021/05/19 06:20:06;;;;;;;9.45;8.45;;;10.40;99.90;;;;;;5076622;28;20037;-66
2021/05/19 06:22:34;;;;;;;10.20;7.60;;;10.40;99.90;;;;;;5074754;28;20048;-66
2021/05/19 06:25:05;;;;;;;9.65;8.48;;;10.50;99.90;;;;;;5070819;28;20051;-65
2021/05/19 06:27:38;;;;;;;10.95;9.63;;;10.50;99.90;;;;;;5082016;28;20937;-65
2021/05/19 06:30:06;;;;;;;11.95;9.68;;;10.60;99.90;;;;;;5081818;28;20032;-66
2021/05/19 06:32:32;;;;;;;10.10;8.38;;;10.60;99.90;;;;;;5081454;28;20076;-66
2021/05/19 06:34:58;;;;;;;10.40;8.85;;;10.60;99.90;;;;;;5078530;28;20107;-66
2021/05/19 06:37:23;;;;;;;10.48;8.55;;;10.70;99.90;;;;;;5081021;28;20153;-66
2021/05/19 06:39:50;;;;;;;10.50;8.55;;;10.70;99.90;;;;;;5078403;28;20085;-65
2021/05/19 06:42:19;;;;;;;9.25;8.05;;;10.70;99.90;;;;;;5080335;28;20028;-65
2021/05/19 06:44:45;;;;;;;11.18;9.57;;;10.80;99.90;;;;;;5078960;28;20028;-66
2021/05/19 06:47:12;;;;;;;10.77;9.43;;;10.80;99.90;;;;;;5081603;28;20489;-66
2021/05/19 06:49:42;;;;;;;10.57;8.65;;;10.90;99.90;;;;;;5081708;28;20501;-66
2021/05/19 06:52:12;;;;;;;9.95;8.32;;;10.90;99.90;;;;;;5079019;28;20024;-66
2021/05/19 06:54:43;;;;;;;11.05;9.07;;;10.90;99.90;;;;;;5081201;28;20032;-66
2021/05/19 06:57:08;;;;;;;10.85;8.80;;;11.00;99.90;;;;;;5081448;28;20350;-66
2021/05/19 06:59:34;;;;;;;11.00;9.13;;;11.00;99.90;;;;;;5079429;28;20047;-67
2021/05/19 07:02:02;;;;;;;11.73;9.02;;;11.20;99.90;;;;;;5078441;28;20032;-68
2021/05/19 07:04:27;;;;;;;11.43;9.88;;;11.20;99.90;;;;;;5079478;28;20039;-68
2021/05/19 07:06:57;;;;;;;9.95;8.95;;;11.30;99.90;;;;;;5079419;28;20364;-67
2021/05/19 07:09:25;;;;;;;10.75;8.40;;;11.30;99.90;;;;;;5078906;28;20017;-66
2021/05/19 07:11:54;;;;;;;10.50;8.30;;;11.30;99.90;;;;;;5081266;28;20111;-65
2021/05/19 07:14:21;;;;;;;9.13;8.07;;;11.40;99.90;;;;;;5076418;28;20024;-65
2021/05/19 07:16:50;;;;;;;9.23;8.20;;;11.40;99.90;;;;;;5078573;28;20089;-67
2021/05/19 07:19:16;;;;;;;9.38;7.90;;;11.40;99.90;;;;;;5078245;28;20025;-66
2021/05/19 07:21:41;;;;;;;9.68;7.82;;;11.40;99.90;;;;;;5079348;28;20030;-67
2021/05/19 07:24:07;;;;;;;9.07;7.63;;;11.50;99.90;;;;;;5076985;28;20032;-66
2021/05/19 07:26:35;;;;;;;9.32;8.30;;;11.50;99.90;;;;;;5078265;28;20013;-66
2021/05/19 07:29:01;;;;;;;9.30;8.38;;;11.50;99.90;;;;;;5077817;28;20021;-67
2021/05/19 07:31:27;;;;;;;9.48;8.10;;;11.60;99.90;;;;;;5059903;28;20463;-66
2021/05/19 07:33:53;;;;;;;9.50;7.53;;;11.50;99.90;;;;;;5078700;28;20025;-66
2021/05/19 07:36:21;;;;;;;11.60;7.60;;;11.60;99.90;;;;;;5079891;28;20047;-66
2021/05/19 07:38:49;;;;;;;8.45;7.15;;;11.60;99.90;;;;;;5076439;28;20036;-66
2021/05/19 07:41:15;;;;;;;8.40;6.68;;;11.80;99.90;;;;;;5077710;28;20130;-66
2021/05/19 07:43:41;;;;;;;8.68;7.03;;;11.90;99.90;;;;;;5080212;28;20125;-66
2021/05/19 07:46:06;;;;;;;8.55;6.50;;;12.10;99.90;;;;;;5079682;28;20037;-67
2021/05/19 07:48:32;;;;;;;7.68;6.50;;;12.20;99.90;;;;;;5077989;28;20420;-66
2021/05/19 07:51:02;;;;;;;6.93;6.22;;;12.30;99.90;;;;;;5083758;28;20032;-67
2021/05/19 07:53:28;;;;;;;7.68;6.20;;;12.50;99.90;;;;;;5079515;28;20171;-67
2021/05/19 07:56:06;;;;;;;8.25;6.55;;;12.70;99.90;;;;;;5077188;28;20025;-66
2021/05/19 08:03:42;;;;;;;6.80;4.50;;;13.20;99.90;;;;;;5074130;28;20116;-66
2021/05/19 08:06:08;;;;;;;7.30;4.15;;;13.60;99.90;;;;;;5063829;28;20041;-66
2021/05/19 08:08:36;;;;;;;6.30;4.13;;;13.70;99.90;;;;;;5070087;28;20031;-65
2021/05/19 08:11:04;;;;;;;6.32;3.80;;;13.80;99.90;;;;;;5077784;28;20103;-66
2021/05/19 08:13:35;;;;;;;5.88;3.50;;;13.90;99.90;;;;;;5078023;28;20090;-66
2021/05/19 08:16:01;;;;;;;4.55;3.35;;;14.10;99.90;;;;;;5078697;28;20477;-66
2021/05/19 08:18:29;;;;;;;6.35;3.90;;;14.20;99.90;;;;;;5077875;28;20055;-66
2021/05/19 08:20:59;;;;;;;5.97;3.95;;;14.30;99.90;;;;;;5075659;28;20032;-66
2021/05/19 08:23:25;;;;;;;7.00;4.40;;;14.30;99.90;;;;;;5077779;28;20106;-65
2021/05/19 08:25:51;;;;;;;7.88;4.72;;;14.20;99.90;;;;;;5076290;28;20424;-66
2021/05/19 08:28:16;;;;;;;6.20;4.40;;;14.30;99.90;;;;;;5075765;28;20121;-66
2021/05/19 08:30:42;;;;;;;5.50;3.90;;;14.30;99.90;;;;;;5076272;28;20016;-66
2021/05/19 08:33:07;;;;;;;5.38;4.00;;;14.30;99.90;;;;;;5058057;28;20033;-66
2021/05/19 08:35:33;;;;;;;5.60;4.10;;;14.20;99.90;;;;;;5078701;28;20081;-66
2021/05/19 08:37:59;;;;;;;4.80;3.35;;;14.30;99.90;;;;;;5077346;28;20032;-66
2021/05/19 08:40:24;;;;;;;6.47;3.67;;;14.20;99.90;;;;;;5079959;28;20063;-66
2021/05/19 08:42:50;;;;;;;5.50;3.70;;;14.30;99.90;;;;;;5073267;28;20027;-66
2021/05/19 08:45:18;;;;;;;6.72;4.13;;;14.40;99.90;;;;;;5077958;28;20028;-66
2021/05/19 08:47:46;;;;;;;5.57;4.00;;;14.50;99.90;;;;;;5078071;28;20023;-66
2021/05/19 08:50:12;;;;;;;8.30;3.97;;;14.60;99.90;;;;;;5075515;28;20028;-66
2021/05/19 08:52:38;;;;;;;4.82;3.17;;;14.70;99.90;;;;;;5078813;28;20036;-65
2021/05/19 08:55:14;;;;;;;5.47;3.00;;;14.80;99.90;;;;;;5075300;28;20077;-66
2021/05/19 08:57:43;;;;;;;5.05;3.58;;;14.90;99.90;;;;;;5081492;28;20024;-66
2021/05/19 09:00:10;;;;;;;5.60;3.70;;;14.90;99.90;;;;;;5074902;28;20363;-66
2021/05/19 09:02:35;;;;;;;7.05;3.78;;;14.90;99.90;;;;;;5078781;28;20097;-65
2021/05/19 09:05:04;;;;;;;7.30;3.35;;;14.90;99.90;;;;;;5077952;28;20111;-66
2021/05/19 09:07:30;;;;;;;4.95;3.70;;;14.90;99.90;;;;;;5059058;28;20039;-66
2021/05/19 09:09:56;;;;;;;6.47;3.47;;;14.70;97.60;;;;;;5075622;28;20017;-65
2021/05/19 09:12:25;;;;;;;4.82;3.50;;;14.40;99.80;;;;;;5077828;28;20016;-65
2021/05/19 09:15:03;;;;;;;4.95;3.67;;;14.40;99.90;;;;;;5077935;28;20099;-66
2021/05/19 09:17:30;;;;;;;6.10;3.45;;;14.30;99.90;;;;;;5053072;28;20036;-65
2021/05/19 09:20:06;;;;;;;7.55;4.40;;;14.30;99.90;;;;;;5074366;28;20028;-66
2021/05/19 09:22:36;;;;;;;6.07;3.70;;;14.40;99.90;;;;;;5075152;28;20044;-66
2021/05/19 09:25:24;;;;;;;6.45;3.80;;;14.50;99.90;;;;;;5076743;28;20016;-66
2021/05/19 09:27:53;;;;;;;5.18;3.30;;;14.80;99.90;;;;;;5076988;28;20097;-65
2021/05/19 09:30:42;;;;;;;5.80;3.20;;;14.80;99.90;;;;;;5075568;28;20063;-65
2021/05/19 09:33:16;;;;;;;6.43;3.53;;;15.00;99.90;;;;;;5074616;28;20020;-65
2021/05/19 09:35:42;;;;;;;5.53;2.70;;;15.00;99.50;;;;;;5066016;28;20181;-66
2021/05/19 09:38:30;;;;;;;5.82;2.92;;;15.20;99.80;;;;;;5076349;28;20020;-65
2021/05/19 09:41:15;;;;;;;5.13;2.78;;;15.40;99.90;;;;;;5076186;28;20123;-66
2021/05/19 09:43:41;;;;;;;6.05;2.15;;;15.70;97.50;;;;;;5066868;28;20043;-65
2021/05/19 09:46:14;;;;;;;4.32;1.77;;;15.70;74.00;;;;;;5075391;28;20036;-66
2021/05/19 09:48:42;;;;;;;4.55;2.03;;;15.80;85.30;;;;;;5078239;28;20024;-65
2021/05/19 09:51:08;;;;;;;6.03;2.00;;;15.90;82.60;;;;;;5058481;28;20465;-65
2021/05/19 09:53:34;;;;;;;5.68;2.50;;;15.90;78.50;;;;;;5074972;28;20037;-65
2021/05/19 09:55:59;;;;;;;4.05;2.13;;;15.70;76.20;;;;;;5080210;28;20035;-68
2021/05/19 09:58:40;;;;;;;4.22;1.90;;;15.50;75.10;;;;;;5073210;28;20131;-65
2021/05/19 10:01:06;;;;;;;3.50;1.70;;;15.40;80.60;;;;;;5076192;28;20446;-65
2021/05/19 10:03:32;;;;;;;3.45;1.83;;;14.90;81.80;;;;;;5074410;28;20036;-66
2021/05/19 10:06:21;;;;;;;4.57;2.00;;;14.80;90.20;;;;;;5077540;28;20354;-66
2021/05/19 10:08:51;;;;;;;4.90;2.15;;;14.60;89.50;;;;;;5078886;28;20024;-66
2021/05/19 10:11:19;;;;;;;5.43;2.10;;;14.40;91.10;;;;;;5078007;28;20024;-65
2021/05/19 10:13:45;;;;;;;5.55;2.15;;;14.30;90.00;;;;;;5072306;28;20063;-66
2021/05/19 10:16:21;;;;;;;4.53;1.83;;;14.30;95.50;;;;;;5076278;28;20056;-66
2021/05/19 10:18:51;;;;;;;4.25;2.03;;;14.30;94.00;;;;;;5075658;28;20114;-66
2021/05/19 10:21:17;;;;;;;5.18;2.10;;;14.30;97.70;;;;;;5076308;28;20190;-66
2021/05/19 10:24:07;;;;;;;4.25;2.00;;;14.40;95.00;;;;;;5074061;28;20501;-65
2021/05/19 10:27:03;;;;;;;5.28;2.03;;;14.60;92.00;;;;;;5057518;28;20032;-67
2021/05/19 10:29:47;;;;;;;4.05;1.70;;;14.90;91.70;;;;;;5077035;28;20024;-66
2021/05/19 10:32:22;;;;;;;3.05;1.58;;;15.10;96.60;;;;;;5090710;28;20078;-66
2021/05/19 10:35:02;;;;;;;4.47;1.80;;;15.20;83.10;;;;;;5075694;28;20031;-66
2021/05/19 10:37:34;;;;;;;4.35;1.55;;;15.30;80.30;;;;;;5077845;28;20036;-66
2021/05/19 10:40:13;;;;;;;3.95;1.40;;;15.30;83.90;;;;;;5075789;28;20025;-66
2021/05/19 10:42:43;;;;;;;2.03;1.50;;;15.20;73.90;;;;;;5075623;28;20028;-66
2021/05/19 10:45:14;;;;;;;3.97;1.48;;;15.00;74.00;;;;;;5064203;28;20020;-66
2021/05/19 10:47:48;;;;;;;3.65;1.40;;;14.90;72.60;;;;;;5075064;28;20024;-66
2021/05/19 10:58:54;;;;;;;3.08;1.10;;;15.20;71.70;;;;;;5079344;28;20035;-65
2021/05/19 11:01:51;;;;;;;2.03;1.15;;;15.50;77.30;;;;;;5073667;28;20040;-66
2021/05/19 11:04:22;;;;;;;3.25;1.17;;;15.80;64.70;;;;;;5069817;28;21933;-66
2021/05/19 11:06:57;;;;;;;3.47;1.30;;;15.90;63.20;;;;;;5057318;28;20072;-66
2021/05/19 11:09:27;;;;;;;3.60;1.20;;;16.00;57.10;;;;;;5078051;28;20031;-66
2021/05/19 11:12:34;;;;;;;3.28;1.15;;;16.20;67.10;;;;;;5068945;28;20088;-66
2021/05/19 11:15:42;;;;;;;3.53;1.27;;;16.50;58.50;;;;;;5080912;28;20037;-66
2021/05/19 11:21:37;;;;;;;2.00;0.95;;;16.50;61.30;;;;;;5082492;28;20035;-65
2021/05/19 11:24:10;;;;;;;3.33;1.25;;;16.60;54.80;;;;;;5064459;28;20112;-66
2021/05/19 11:26:37;;;;;;;3.03;1.17;;;16.80;65.70;;;;;;5078000;28;20562;-66
2021/05/19 11:29:03;;;;;;;3.40;1.05;;;17.10;65.60;;;;;;5068726;28;20020;-66
2021/05/19 11:31:41;;;;;;;5.00;1.70;;;17.30;60.30;;;;;;5082481;28;20042;-65
2021/05/19 11:34:07;;;;;;;6.28;3.10;;;17.30;63.50;;;;;;5081456;28;20056;-65
2021/05/19 11:36:46;;;;;;;3.90;1.45;;;17.40;63.60;;;;;;5077742;28;20033;-65
2021/05/19 11:39:25;;;;;;;3.47;1.13;;;17.50;61.40;;;;;;4379024;28;10000750;-66
2021/05/19 11:41:53;;;;;;;1.45;1.00;;;17.60;58.90;;;;;;5077861;28;20024;-66
2021/05/19 11:44:38;;;;;;;3.67;1.10;;;17.40;56.90;;;;;;5077760;28;20094;-66
2021/05/19 11:47:06;;;;;;;2.08;1.15;;;17.30;58.30;;;;;;5073752;28;20039;-66
2021/05/19 11:49:32;;;;;;;1.52;0.90;;;17.00;58.90;;;;;;5072624;28;20449;-66
2021/05/19 11:51:58;;;;;;;3.35;1.08;;;16.90;55.90;;;;;;5074645;28;20038;-66
2021/05/19 11:54:26;;;;;;;2.70;0.90;;;16.90;57.00;;;;;;5075078;28;20107;-66
2021/05/19 11:56:53;;;;;;;3.10;1.02;;;17.20;62.90;;;;;;5073735;28;20132;-66
2021/05/19 11:59:21;;;;;;;3.10;1.20;;;17.20;55.70;;;;;;5073178;28;20039;-66
2021/05/19 12:01:59;;;;;;;3.00;1.08;;;17.30;59.50;;;;;;5073333;28;20253;-66
2021/05/19 12:04:29;;;;;;;3.72;1.30;;;17.20;55.50;;;;;;5076343;28;20304;-66
2021/05/19 12:06:55;;;;;;;3.25;1.30;;;17.20;57.20;;;;;;5075828;28;20040;-66
2021/05/19 12:09:22;;;;;;;1.85;1.02;;;17.30;57.70;;;;;;5078791;28;20365;-66
2021/05/19 12:11:51;;;;;;;3.55;1.00;;;17.40;54.40;;;;;;5075271;28;20023;-68
2021/05/19 12:14:21;;;;;;;2.05;0.90;;;17.50;54.60;;;;;;5077669;28;20039;-67
2021/05/19 12:16:47;;;;;;;2.67;1.20;;;17.40;54.70;;;;;;5075850;28;20039;-66
2021/05/19 12:19:17;;;;;;;3.28;0.90;;;18.00;61.70;;;;;;5074364;28;20020;-66
2021/05/19 12:21:52;;;;;;;2.53;1.20;;;18.40;60.90;;;;;;5073503;28;20055;-65
2021/05/19 12:24:24;;;;;;;3.92;1.05;;;18.40;58.00;;;;;;5075800;28;20029;-66
2021/05/19 12:26:52;;;;;;;1.80;0.85;;;18.30;54.60;;;;;;5074780;28;20088;-66
2021/05/19 12:29:34;;;;;;;3.55;1.40;;;17.90;53.00;;;;;;5064969;28;20049;-66
2021/05/19 12:32:22;;;;;;;2.15;1.00;;;18.00;54.20;;;;;;5074594;28;20139;-67
2021/05/19 12:35:15;;;;;;;2.85;1.00;;;17.50;52.00;;;;;;5074570;28;20028;-67
2021/05/19 12:37:58;;;;;;;1.80;1.00;;;17.60;56.70;;;;;;5074550;28;21830;-67
2021/05/19 12:40:27;;;;;;;2.60;1.10;;;17.90;58.40;;;;;;5065015;28;20036;-68
2021/05/19 12:43:04;;;;;;;3.13;1.15;;;18.00;60.90;;;;;;5073046;28;20099;-68
2021/05/19 12:45:36;;;;;;;3.03;1.00;;;18.30;60.30;;;;;;5073962;28;20047;-67
2021/05/19 12:48:18;;;;;;;3.72;1.17;;;18.20;54.70;;;;;;5074352;28;20043;-67
2021/05/19 12:50:49;;;;;;;2.58;1.00;;;18.30;57.90;;;;;;5073248;28;20073;-67
2021/05/19 12:53:34;;;;;;;;;;;18.30;57.10;;;;;;5076941;28;20115;-67
2021/05/19 12:56:24;;;;;;;2.13;0.90;;;18.10;58.20;;;;;;5075231;28;19912;-67
2021/05/19 12:59:05;;;;;;;2.97;0.93;;;18.10;54.50;;;;;;5069220;28;20075;-67
2021/05/19 13:01:47;;;;;;;2.65;0.90;;;18.00;59.50;;;;;;5076953;28;20032;-68
2021/05/19 13:04:13;;;;;;;1.85;1.00;;;18.00;57.00;;;;;;5076806;28;20032;-68
2021/05/19 13:06:40;;;;;;;3.17;1.10;;;18.20;57.40;;;;;;5042393;28;20029;-68
2021/05/19 13:09:13;;;;;;;3.20;1.05;;;18.40;58.50;;;;;;5048942;28;20035;-67
2021/05/19 13:11:51;;;;;;;2.45;0.90;;;18.60;57.70;;;;;;5074075;28;20033;-67
2021/05/19 13:14:32;;;;;;;2.97;0.85;;;18.50;58.10;;;;;;5077189;28;20025;-68
2021/05/19 13:17:01;;;;;;;3.50;1.23;;;18.30;54.70;;;;;;5065696;28;20032;-68
2021/05/19 13:19:26;;;;;;;2.13;1.02;;;18.20;55.60;;;;;;5076425;28;20028;-68
2021/05/19 13:21:54;;;;;;;3.17;1.27;;;18.20;57.00;;;;;;5076183;28;20062;-68